Ella North Airport

IR-0014 · Khuzestan, 伊朗

使用的METAR站距离机场66 km。
罗盘
风向 的 风向 290°
风: 2 kt, 1 beaufort

添加一条跑道以查看侧风和逆风信息。

添置 跑道
0 ft 1.000 2.000 3.000 4.000 5.000
CAVOK
METAR OIAW 191724Z 29002KT CAVOK 41/10 Q0996

METAR Ella North Airport - IR-0014

Ella North Airport是,伊朗中的小机场。 该机场位于纬度31,92181和经度48,87752。 这个机场没有ICAO代码,我们使用IR-0014作为参考。 机场在Tehran FIR中。

该航空气象观测是针对Lieutenant General Qasem Soleimani International Airport在2024年6月19日 20:54, 当地时间进行的。

机场观察

风向为290°,速度为2 kt。

天气为CAVOK。这意味着在5.000 ft或MSA(最低安全高度)以下(以较高者为准)以下没有云。这也意味着没有观测到积雨云或高耸的积云,可见度为10 km 或者更多或更高。此外,不会有雾,降雨或其他重要天气。

温度和风寒是41 °C。 露点为10 °C,相对湿度为15%。 海平面上的气压为996 hPa (QNH)。

白天

今天,太阳从05:08升起,在19:23降落。 这适用于Ella North Airport,世界夏令时可能有所不同。 当地时间与世界标准时间之间的时差为+3 小时 30 分钟。 夏令时目前正在进行中。

公司介绍

我们没有关于这个机场的公司信息。

体会

到Vliegles.nl去找飞行课程,跳伞和其他飞行体验。 浏览页面,了解Ella North Airport附近所有可用的活动。 你也可以使用搜索功能来寻找你所在地附近的特定飞行课程、跳伞或其他飞行体验。

温度 & 天气

温度 41 °C
露点 10 °C
相对湿度 15%
Kp-index 2 (0-9)

白天

日出
05:10 (7:51)
中午
12:16
日落
19:22

小工具

你想在你的网站上有一个关于Ella North Airport的当前航空天气(METAR)的小部件吗?

显示HTML代码
报告变更